createdAt,value
2022-12-03T00:00:58.182Z,20.65
2022-12-03T00:03:26.099Z,20.45
2022-12-03T00:05:54.077Z,19.17
2022-12-03T00:08:21.872Z,19.33
2022-12-03T00:10:49.714Z,20.40
2022-12-03T00:13:17.519Z,19.52
2022-12-03T00:15:46.981Z,20.67
2022-12-03T00:18:15.037Z,19.63
2022-12-03T00:20:42.912Z,19.30
2022-12-03T00:23:10.736Z,18.60
2022-12-03T00:25:38.601Z,18.02
2022-12-03T00:28:06.395Z,16.92
2022-12-03T00:30:34.265Z,17.90
2022-12-03T00:33:03.481Z,18.73
2022-12-03T00:35:31.462Z,21.10
2022-12-03T00:37:59.237Z,18.98
2022-12-03T00:40:27.100Z,19.13
2022-12-03T00:42:54.869Z,20.02
2022-12-03T00:45:22.801Z,18.55
2022-12-03T00:47:50.577Z,18.35
2022-12-03T00:50:19.868Z,20.25
2022-12-03T00:52:47.726Z,19.60
2022-12-03T00:55:15.614Z,20.20
2022-12-03T00:57:43.623Z,19.15
2022-12-03T01:00:12.814Z,17.80
2022-12-03T01:02:40.741Z,18.75
2022-12-03T01:05:09.464Z,19.55
2022-12-03T01:07:38.961Z,19.95
2022-12-03T01:10:08.346Z,17.75
2022-12-03T01:12:36.380Z,18.95
2022-12-03T01:15:04.970Z,19.48
2022-12-03T01:17:32.864Z,20.48
2022-12-03T01:20:02.324Z,19.90
2022-12-03T01:22:30.124Z,20.50
2022-12-03T01:24:59.360Z,17.75
2022-12-03T01:27:27.160Z,19.85
2022-12-03T01:29:55.505Z,19.10
2022-12-03T01:32:22.400Z,20.05
2022-12-03T01:34:51.800Z,19.25
2022-12-03T01:37:21.392Z,20.23
2022-12-03T01:39:49.378Z,20.30
2022-12-03T01:42:19.931Z,19.33
2022-12-03T01:44:48.061Z,18.90
2022-12-03T01:47:18.233Z,18.92
2022-12-03T01:49:49.399Z,20.10
2022-12-03T01:52:18.634Z,19.30
2022-12-03T01:54:48.739Z,19.67
2022-12-03T01:57:26.517Z,20.83
2022-12-03T01:59:55.350Z,18.75
2022-12-03T02:02:25.368Z,19.30
2022-12-03T02:04:54.630Z,20.38
2022-12-03T02:07:26.066Z,19.30
2022-12-03T02:09:55.810Z,21.50
2022-12-03T02:12:28.979Z,21.95
2022-12-03T02:14:57.255Z,21.00
2022-12-03T02:17:25.187Z,21.67
2022-12-03T02:19:53.550Z,19.70
2022-12-03T02:22:32.883Z,20.30
2022-12-03T02:25:12.674Z,19.38
2022-12-03T02:27:41.311Z,18.50
2022-12-03T02:30:10.239Z,19.63
2022-12-03T02:32:38.721Z,20.48
2022-12-03T02:35:07.858Z,20.42
2022-12-03T02:37:37.055Z,18.92
2022-12-03T02:40:08.242Z,19.70
2022-12-03T02:42:36.621Z,19.27
2022-12-03T02:45:07.769Z,20.42
2022-12-03T02:47:37.073Z,18.55
2022-12-03T02:50:05.765Z,19.77
2022-12-03T02:52:33.659Z,19.95
2022-12-03T02:55:02.935Z,16.90
2022-12-03T02:57:30.833Z,20.17
2022-12-03T03:00:00.039Z,20.55
2022-12-03T03:02:28.184Z,20.10
2022-12-03T03:04:56.623Z,19.60
2022-12-03T03:07:24.535Z,20.58
2022-12-03T03:09:52.550Z,17.38
2022-12-03T03:12:20.438Z,20.77
2022-12-03T03:14:48.268Z,20.77
2022-12-03T03:17:17.793Z,20.63
2022-12-03T03:19:45.660Z,18.90
2022-12-03T03:22:13.655Z,18.08
2022-12-03T03:24:41.448Z,20.33
2022-12-03T03:27:09.329Z,18.63
2022-12-03T03:29:37.388Z,21.08
2022-12-03T03:32:05.729Z,19.77
2022-12-03T03:34:35.724Z,20.15
2022-12-03T03:37:03.564Z,18.75
2022-12-03T03:39:31.393Z,17.67
2022-12-03T03:41:59.555Z,20.70
2022-12-03T03:44:28.181Z,19.23
2022-12-03T03:46:56.343Z,20.35
2022-12-03T03:49:24.291Z,18.67
2022-12-03T03:51:53.832Z,20.13
2022-12-03T03:54:22.857Z,19.02
2022-12-03T03:56:50.804Z,19.55
2022-12-03T03:59:18.874Z,17.40
2022-12-03T04:01:47.105Z,19.65
2022-12-03T04:04:18.454Z,19.65
2022-12-03T04:06:46.561Z,18.67
2022-12-03T04:09:16.133Z,18.80
2022-12-03T04:12:01.687Z,18.08
2022-12-03T04:14:29.578Z,18.15
2022-12-03T04:16:57.413Z,18.67
2022-12-03T04:19:25.320Z,17.52
2022-12-03T04:22:10.726Z,19.67
2022-12-03T04:24:39.881Z,19.70
2022-12-03T04:27:25.302Z,19.15
2022-12-03T04:29:53.208Z,20.35
2022-12-03T04:32:38.759Z,19.40
2022-12-03T04:35:24.635Z,17.17
2022-12-03T04:37:52.496Z,18.60
2022-12-03T04:40:39.511Z,19.02
2022-12-03T04:43:07.345Z,20.35
2022-12-03T04:45:35.182Z,18.95
2022-12-03T04:48:03.424Z,19.02
2022-12-03T04:50:31.243Z,19.85
2022-12-03T04:52:59.066Z,19.02
2022-12-03T04:55:28.242Z,19.25
2022-12-03T04:57:56.400Z,19.25
2022-12-03T05:00:24.349Z,19.23
2022-12-03T05:02:52.258Z,19.38
2022-12-03T05:05:20.362Z,16.98
2022-12-03T05:07:48.170Z,18.60
2022-12-03T05:10:15.999Z,18.80
2022-12-03T05:12:45.215Z,20.90
2022-12-03T05:15:13.101Z,19.08
2022-12-03T05:17:40.935Z,19.52
2022-12-03T05:20:28.406Z,20.75
2022-12-03T05:22:56.755Z,18.48
2022-12-03T05:25:24.536Z,19.83
2022-12-03T05:27:53.739Z,19.40
2022-12-03T05:30:22.491Z,20.08
2022-12-03T05:32:50.356Z,20.38
2022-12-03T05:35:18.616Z,20.08
2022-12-03T05:37:46.451Z,20.63
2022-12-03T05:40:15.189Z,21.25
2022-12-03T05:42:53.856Z,21.10
2022-12-03T05:45:23.961Z,19.23
2022-12-03T05:47:52.180Z,21.05
2022-12-03T05:50:20.093Z,20.45
2022-12-03T05:52:48.528Z,20.58
2022-12-03T05:55:16.516Z,21.00
2022-12-03T05:57:44.618Z,21.40
2022-12-03T06:00:15.911Z,19.63
2022-12-03T06:02:45.537Z,21.17
2022-12-03T06:05:14.538Z,21.02
2022-12-03T06:07:42.899Z,20.10
2022-12-03T06:10:13.336Z,20.83
2022-12-03T06:12:41.156Z,20.95
2022-12-03T06:15:09.788Z,20.20
2022-12-03T06:17:37.614Z,20.15
2022-12-03T06:20:08.451Z,22.27
2022-12-03T06:22:36.258Z,20.52
2022-12-03T06:25:06.835Z,21.23
2022-12-03T06:27:35.180Z,21.35
2022-12-03T06:30:03.116Z,21.77
2022-12-03T06:32:31.039Z,19.27
2022-12-03T06:34:58.805Z,20.58
2022-12-03T06:37:28.078Z,20.73
2022-12-03T06:39:55.928Z,22.80
2022-12-03T06:42:23.821Z,20.73
2022-12-03T06:44:52.150Z,20.73
2022-12-03T06:47:20.232Z,21.90
2022-12-03T06:49:48.004Z,20.50
2022-12-03T06:52:16.002Z,18.73
2022-12-03T06:54:45.171Z,20.05
2022-12-03T06:57:13.009Z,17.85
2022-12-03T06:59:40.836Z,19.70
2022-12-03T07:02:08.719Z,19.70
2022-12-03T07:04:36.617Z,20.20
2022-12-03T07:07:04.466Z,19.10
2022-12-03T07:09:32.261Z,16.83
2022-12-03T07:12:01.486Z,20.88
2022-12-03T07:14:29.296Z,19.60
2022-12-03T07:16:57.099Z,16.23
2022-12-03T07:19:30.675Z,18.67
2022-12-03T07:22:00.106Z,19.38
2022-12-03T07:24:27.953Z,19.90
2022-12-03T07:26:55.982Z,19.02
2022-12-03T07:29:25.398Z,18.90
2022-12-03T07:31:53.461Z,17.92
2022-12-03T07:34:21.614Z,18.63
2022-12-03T07:36:49.470Z,16.50
2022-12-03T07:39:17.301Z,18.58
2022-12-03T07:41:45.112Z,18.40
2022-12-03T07:44:14.730Z,18.77
2022-12-03T07:46:44.468Z,21.83
2022-12-03T07:49:13.196Z,17.73
2022-12-03T07:51:41.232Z,19.17
2022-12-03T07:54:09.329Z,18.33
2022-12-03T07:56:37.155Z,19.40
2022-12-03T07:59:05.010Z,17.63
2022-12-03T08:01:33.006Z,18.83
2022-12-03T08:04:02.331Z,20.80
2022-12-03T08:06:30.157Z,18.25
2022-12-03T08:08:58.011Z,15.70
2022-12-03T08:11:25.821Z,19.65
2022-12-03T08:13:53.694Z,19.17
2022-12-03T08:16:22.895Z,18.13
2022-12-03T08:18:51.528Z,16.67
2022-12-03T08:21:22.364Z,19.08
2022-12-03T08:23:50.427Z,16.70
2022-12-03T08:26:23.474Z,17.42
2022-12-03T08:28:51.541Z,16.38
2022-12-03T08:31:25.783Z,17.50
2022-12-03T08:34:22.761Z,18.08
2022-12-03T08:36:53.598Z,17.83
2022-12-03T08:39:33.468Z,17.52
2022-12-03T08:42:28.228Z,17.90
2022-12-03T08:44:56.764Z,15.85
2022-12-03T08:47:25.549Z,18.45
2022-12-03T08:49:57.927Z,19.23
2022-12-03T08:52:32.841Z,18.55
2022-12-03T08:55:01.754Z,18.67
2022-12-03T08:57:30.934Z,8.85
2022-12-03T09:00:01.854Z,18.38
2022-12-03T09:02:33.466Z,16.55
2022-12-03T09:05:07.457Z,17.80
2022-12-03T09:07:36.786Z,18.90
2022-12-03T09:10:05.090Z,16.90
2022-12-03T09:12:32.891Z,16.65
2022-12-03T09:15:00.802Z,19.35
2022-12-03T09:17:28.841Z,20.45
2022-12-03T09:19:57.095Z,21.27
2022-12-03T09:22:24.874Z,20.48
2022-12-03T09:24:54.444Z,20.70
2022-12-03T09:27:22.814Z,21.80
2022-12-03T09:29:50.726Z,19.13
2022-12-03T09:32:19.138Z,16.80
2022-12-03T09:34:47.093Z,20.33
2022-12-03T09:37:15.172Z,17.15
2022-12-03T09:39:42.995Z,17.17
2022-12-03T09:42:12.559Z,15.30
2022-12-03T09:44:40.471Z,17.98
2022-12-03T09:47:09.024Z,16.38
2022-12-03T09:49:38.430Z,14.95
2022-12-03T09:52:07.333Z,15.57
2022-12-03T09:54:47.335Z,16.58
2022-12-03T09:57:18.003Z,17.63
2022-12-03T09:59:46.183Z,17.10
2022-12-03T10:02:21.919Z,18.27
2022-12-03T10:04:50.283Z,17.70
2022-12-03T10:07:18.132Z,18.00
2022-12-03T10:09:46.194Z,16.73
2022-12-03T10:12:16.489Z,19.90
2022-12-03T10:14:44.391Z,18.63
2022-12-03T10:17:12.913Z,17.98
2022-12-03T10:19:42.662Z,17.85
2022-12-03T10:22:10.565Z,17.58
2022-12-03T10:24:39.207Z,16.80
2022-12-03T10:27:24.087Z,17.67
2022-12-03T10:29:59.588Z,19.08
2022-12-03T10:32:28.816Z,19.52
2022-12-03T10:35:09.506Z,16.02
2022-12-03T10:37:37.650Z,17.60
2022-12-03T10:40:11.389Z,18.77
2022-12-03T10:42:42.374Z,19.02
2022-12-03T10:45:19.050Z,17.67
2022-12-03T10:48:05.555Z,17.67
2022-12-03T10:50:34.350Z,17.65
2022-12-03T10:53:02.164Z,18.00
2022-12-03T10:55:30.704Z,20.60
2022-12-03T10:57:59.987Z,21.60
2022-12-03T11:00:28.168Z,21.42
2022-12-03T11:02:57.117Z,23.38
2022-12-03T11:05:27.798Z,23.08
2022-12-03T11:07:56.091Z,21.67
2022-12-03T11:10:24.161Z,20.45
2022-12-03T11:13:29.351Z,21.13
2022-12-03T11:15:58.876Z,22.35
2022-12-03T11:19:02.197Z,20.00
2022-12-03T11:21:30.483Z,18.92
2022-12-03T11:24:18.290Z,20.58
2022-12-03T11:27:09.124Z,21.30
2022-12-03T11:29:48.894Z,20.67
2022-12-03T11:33:04.893Z,21.23
2022-12-03T11:36:11.243Z,20.10
2022-12-03T11:38:57.413Z,23.02
2022-12-03T11:41:37.146Z,19.92
2022-12-03T11:44:31.188Z,26.35
2022-12-03T11:47:02.080Z,20.02
2022-12-03T11:49:37.391Z,20.60
2022-12-03T11:52:25.182Z,19.45
2022-12-03T11:54:55.585Z,22.08
2022-12-03T11:57:28.835Z,20.85
2022-12-03T12:00:15.871Z,19.97
2022-12-03T12:02:44.393Z,20.30
2022-12-03T12:05:17.040Z,20.63
2022-12-03T12:07:48.064Z,21.65
2022-12-03T12:10:17.682Z,23.25
2022-12-03T12:12:54.387Z,20.95
2022-12-03T12:15:43.130Z,18.92
2022-12-03T12:18:36.764Z,18.88
2022-12-03T12:21:41.976Z,19.75
2022-12-03T12:24:33.489Z,16.42
2022-12-03T12:27:04.087Z,19.60
2022-12-03T12:29:32.009Z,19.55
2022-12-03T12:32:02.122Z,18.83
2022-12-03T12:34:30.323Z,19.80
2022-12-03T12:37:01.053Z,21.65
2022-12-03T12:39:28.950Z,19.48
2022-12-03T12:41:59.334Z,19.25
2022-12-03T12:44:28.513Z,19.40
2022-12-03T12:47:09.972Z,18.65
2022-12-03T12:49:37.875Z,17.50
2022-12-03T12:52:07.058Z,20.65
2022-12-03T12:54:34.942Z,21.05
2022-12-03T12:57:08.791Z,18.15
2022-12-03T12:59:36.752Z,18.50
2022-12-03T13:02:20.323Z,19.30
2022-12-03T13:04:48.587Z,19.23
2022-12-03T13:07:16.783Z,17.97
2022-12-03T13:09:44.703Z,17.70
2022-12-03T13:12:21.317Z,20.48
2022-12-03T13:14:50.458Z,21.00
2022-12-03T13:17:24.253Z,21.77
2022-12-03T13:20:03.694Z,18.98
2022-12-03T13:22:35.398Z,18.27
2022-12-03T13:25:50.891Z,16.98
2022-12-03T13:28:16.781Z,19.55
2022-12-03T13:30:44.578Z,18.52
2022-12-03T13:33:15.930Z,18.13
2022-12-03T13:35:43.950Z,19.40
2022-12-03T13:38:14.734Z,19.73
2022-12-03T13:40:43.112Z,19.08
2022-12-03T13:43:13.624Z,18.95
2022-12-03T13:45:44.922Z,16.77
2022-12-03T13:48:22.441Z,17.77
2022-12-03T13:50:50.941Z,15.73
2022-12-03T13:53:22.567Z,17.13
2022-12-03T13:55:52.193Z,18.98
2022-12-03T13:58:20.066Z,19.80
2022-12-03T14:00:49.342Z,17.40
2022-12-03T14:03:17.580Z,17.80
2022-12-03T14:05:45.408Z,15.45
2022-12-03T14:08:13.377Z,16.58
2022-12-03T14:10:41.344Z,17.73
2022-12-03T14:13:09.207Z,17.90
2022-12-03T14:15:37.070Z,16.80
2022-12-03T14:18:06.303Z,17.70
2022-12-03T14:20:34.911Z,17.33
2022-12-03T14:23:02.729Z,17.48
2022-12-03T14:25:30.514Z,16.98
2022-12-03T14:27:58.361Z,18.13
2022-12-03T14:30:26.539Z,16.05
2022-12-03T14:32:54.405Z,15.55
2022-12-03T14:35:23.789Z,17.63
2022-12-03T14:37:51.588Z,15.65
2022-12-03T14:40:21.768Z,16.92
2022-12-03T14:42:50.397Z,15.25
2022-12-03T14:45:18.196Z,13.90
2022-12-03T14:47:46.001Z,15.68
2022-12-03T14:50:14.411Z,14.70
2022-12-03T14:52:43.828Z,14.20
2022-12-03T14:55:11.848Z,16.15
2022-12-03T14:57:40.228Z,17.10
2022-12-03T15:00:09.364Z,15.32
2022-12-03T15:02:37.476Z,15.68
2022-12-03T15:05:05.677Z,17.40
2022-12-03T15:07:34.524Z,15.75
2022-12-03T15:10:03.868Z,17.45
2022-12-03T15:12:31.713Z,16.83
2022-12-03T15:14:59.625Z,19.63
2022-12-03T15:17:31.726Z,16.45
2022-12-03T15:20:00.239Z,17.67
2022-12-03T15:22:27.994Z,15.27
2022-12-03T15:24:55.818Z,15.52
2022-12-03T15:27:24.984Z,14.73
2022-12-03T15:29:53.147Z,16.02
2022-12-03T15:32:22.317Z,16.73
2022-12-03T15:34:51.242Z,16.27
2022-12-03T15:37:19.132Z,18.25
2022-12-03T15:39:52.368Z,16.55
2022-12-03T15:42:20.533Z,17.88
2022-12-03T15:44:49.887Z,18.17
2022-12-03T15:47:17.648Z,17.15
2022-12-03T15:49:45.473Z,16.65
2022-12-03T15:52:13.403Z,19.08
2022-12-03T15:54:41.201Z,15.40
2022-12-03T15:57:09.069Z,17.98
2022-12-03T15:59:36.858Z,18.23
2022-12-03T16:02:06.249Z,17.95
2022-12-03T16:04:34.455Z,17.95
2022-12-03T16:07:02.254Z,16.42
2022-12-03T16:09:30.419Z,20.17
2022-12-03T16:11:58.326Z,18.00
2022-12-03T16:14:26.179Z,19.52
2022-12-03T16:16:55.148Z,18.35
2022-12-03T16:19:24.253Z,18.13
2022-12-03T16:21:52.080Z,17.92
2022-12-03T16:24:20.098Z,18.15
2022-12-03T16:26:48.017Z,19.35
2022-12-03T16:29:15.786Z,18.60
2022-12-03T16:31:43.685Z,19.05
2022-12-03T16:34:11.563Z,18.50
2022-12-03T16:36:40.972Z,18.50
2022-12-03T16:39:08.772Z,18.50
2022-12-03T16:41:36.583Z,19.05
2022-12-03T16:44:04.770Z,19.98
2022-12-03T16:46:32.985Z,19.70
2022-12-03T16:49:00.909Z,18.95
2022-12-03T16:51:30.189Z,18.90
2022-12-03T16:53:59.387Z,18.85
2022-12-03T16:56:27.393Z,17.33
2022-12-03T16:58:55.210Z,18.92
2022-12-03T17:01:23.425Z,18.80
2022-12-03T17:03:51.401Z,16.55
2022-12-03T17:06:19.313Z,19.35
2022-12-03T17:08:49.659Z,19.88
2022-12-03T17:11:19.437Z,18.20
2022-12-03T17:13:47.745Z,20.02
2022-12-03T17:16:15.635Z,18.15
2022-12-03T17:18:43.725Z,20.03
2022-12-03T17:21:11.609Z,17.50
2022-12-03T17:23:39.443Z,20.35
2022-12-03T17:26:07.363Z,17.20
2022-12-03T17:28:36.654Z,19.42
2022-12-03T17:31:04.642Z,19.52
2022-12-03T17:33:32.618Z,20.25
2022-12-03T17:36:01.312Z,20.05
2022-12-03T17:38:34.014Z,21.80
2022-12-03T17:41:05.169Z,18.10
2022-12-03T17:43:32.966Z,17.35
2022-12-03T17:46:02.204Z,18.08
2022-12-03T17:48:31.242Z,19.90
2022-12-03T17:50:59.202Z,19.58
2022-12-03T17:53:27.074Z,16.52
2022-12-03T17:55:54.964Z,17.15
2022-12-03T17:58:22.817Z,18.10
2022-12-03T18:00:50.610Z,21.15
2022-12-03T18:03:20.007Z,14.85
2022-12-03T18:05:47.862Z,17.35
2022-12-03T18:08:16.038Z,19.75
2022-12-03T18:10:43.898Z,17.80
2022-12-03T18:13:12.067Z,17.85
2022-12-03T18:15:40.019Z,21.42
2022-12-03T18:18:08.066Z,19.02
2022-12-03T18:20:37.380Z,19.40
2022-12-03T18:23:05.252Z,17.33
2022-12-03T18:25:33.183Z,17.83
2022-12-03T18:28:00.945Z,18.83
2022-12-03T18:30:28.809Z,20.13
2022-12-03T18:32:56.999Z,19.85
2022-12-03T18:35:24.903Z,19.38
2022-12-03T18:37:54.114Z,20.55
2022-12-03T18:40:23.797Z,19.60
2022-12-03T18:42:51.924Z,18.73
2022-12-03T18:45:20.535Z,20.33
2022-12-03T18:47:48.516Z,18.70
2022-12-03T18:50:16.412Z,18.45
2022-12-03T18:52:44.230Z,17.10
2022-12-03T18:55:16.292Z,19.52
2022-12-03T18:57:44.165Z,20.45
2022-12-03T19:00:14.022Z,18.13
2022-12-03T19:05:30.234Z,19.10
2022-12-03T19:07:58.437Z,20.83
2022-12-03T19:10:27.651Z,20.08
2022-12-03T19:12:55.472Z,19.92
2022-12-03T19:15:24.021Z,20.25
2022-12-03T19:17:52.497Z,19.30
2022-12-03T19:20:20.536Z,20.27
2022-12-03T19:22:48.416Z,20.63
2022-12-03T19:25:16.324Z,23.13
2022-12-03T19:27:46.205Z,20.38
2022-12-03T19:30:14.561Z,21.13
2022-12-03T19:32:42.370Z,20.48
2022-12-03T19:35:11.324Z,18.88
2022-12-03T19:37:40.915Z,20.60
2022-12-03T19:40:11.206Z,22.95
2022-12-03T19:42:39.543Z,23.83
2022-12-03T19:45:10.100Z,20.63
2022-12-03T19:47:38.146Z,20.83
2022-12-03T19:50:07.061Z,20.00
2022-12-03T19:52:36.944Z,20.83
2022-12-03T19:55:05.275Z,20.08
2022-12-03T19:57:33.176Z,22.23
2022-12-03T20:00:01.099Z,21.02
2022-12-03T20:02:30.480Z,21.20
2022-12-03T20:04:58.353Z,22.08
2022-12-03T20:07:26.423Z,21.60
2022-12-03T20:09:54.496Z,23.70
2022-12-03T20:12:22.617Z,20.52
2022-12-03T20:14:51.568Z,19.50
2022-12-03T20:17:19.539Z,24.52
2022-12-03T20:19:48.938Z,21.65
2022-12-03T20:22:16.780Z,22.52
2022-12-03T20:24:44.644Z,23.27
2022-12-03T20:27:12.473Z,20.90
2022-12-03T20:29:40.713Z,21.52
2022-12-03T20:32:08.604Z,25.67
2022-12-03T20:34:36.582Z,22.70
2022-12-03T20:37:06.300Z,23.77
2022-12-03T20:39:34.083Z,21.85
2022-12-03T20:42:01.994Z,23.02
2022-12-03T20:44:29.908Z,22.38
2022-12-03T20:46:57.808Z,24.83
2022-12-03T20:49:25.640Z,21.92
2022-12-03T20:51:53.458Z,22.73
2022-12-03T20:54:22.632Z,25.95
2022-12-03T20:56:50.990Z,23.77
2022-12-03T20:59:19.272Z,22.77
2022-12-03T21:01:47.207Z,23.35
2022-12-03T21:04:16.095Z,23.60
2022-12-03T21:06:43.937Z,24.40
2022-12-03T21:09:13.632Z,23.23
2022-12-03T21:11:43.081Z,24.38
2022-12-03T21:14:11.942Z,21.45
2022-12-03T21:19:30.133Z,24.65
2022-12-03T21:21:57.962Z,23.67
2022-12-03T21:24:25.826Z,24.13
2022-12-03T21:26:55.172Z,23.23
2022-12-03T21:29:23.130Z,23.00
2022-12-03T21:31:51.105Z,24.23
2022-12-03T21:34:18.926Z,22.83
2022-12-03T21:36:46.849Z,25.35
2022-12-03T21:39:14.827Z,22.42
2022-12-03T21:42:19.290Z,23.88
2022-12-03T21:44:32.247Z,23.92
2022-12-03T21:47:10.665Z,22.65
2022-12-03T21:49:42.546Z,26.85
2022-12-03T21:52:10.822Z,22.92
2022-12-03T21:54:38.658Z,23.70
2022-12-03T21:57:06.455Z,25.23
2022-12-03T21:59:35.685Z,23.95
2022-12-03T22:02:03.762Z,23.35
2022-12-03T22:04:31.677Z,21.25
2022-12-03T22:06:59.481Z,22.52
2022-12-03T22:09:27.343Z,24.02
2022-12-03T22:11:56.852Z,23.10
2022-12-03T22:14:24.921Z,22.77
2022-12-03T22:16:54.125Z,22.98
2022-12-03T22:19:23.342Z,23.73
2022-12-03T22:21:51.200Z,22.95
2022-12-03T22:24:19.496Z,24.73
2022-12-03T22:26:47.674Z,24.73
2022-12-03T22:29:16.048Z,26.50
2022-12-03T22:31:43.874Z,26.33
2022-12-03T22:34:13.046Z,24.30
2022-12-03T22:36:40.873Z,23.92
2022-12-03T22:39:08.810Z,23.55
2022-12-03T22:41:36.670Z,28.58
2022-12-03T22:44:04.605Z,25.83
2022-12-03T22:46:32.805Z,27.83
2022-12-03T22:49:06.728Z,26.90
2022-12-03T22:51:36.895Z,28.55
2022-12-03T22:54:05.435Z,28.77
2022-12-03T22:56:33.564Z,25.73
2022-12-03T22:59:03.711Z,26.08
2022-12-03T23:01:34.563Z,25.10
2022-12-03T23:04:03.285Z,25.52
2022-12-03T23:06:31.869Z,26.33
2022-12-03T23:09:01.284Z,27.13
2022-12-03T23:11:29.380Z,24.20
2022-12-03T23:13:58.899Z,25.52
2022-12-03T23:16:28.861Z,25.27
2022-12-03T23:18:58.776Z,25.75
2022-12-03T23:21:30.235Z,24.63
2022-12-03T23:23:58.590Z,26.13
2022-12-03T23:26:28.895Z,24.92
2022-12-03T23:28:57.188Z,24.48
2022-12-03T23:31:26.839Z,24.70
2022-12-03T23:33:55.789Z,24.20
2022-12-03T23:36:25.094Z,28.92
2022-12-03T23:38:53.359Z,25.27
2022-12-03T23:41:23.027Z,26.98
2022-12-03T23:43:52.790Z,26.92
2022-12-03T23:46:22.270Z,27.25
2022-12-03T23:48:50.773Z,25.92
2022-12-03T23:51:20.738Z,27.30
2022-12-03T23:53:49.218Z,24.98
2022-12-03T23:56:19.354Z,25.45
2022-12-03T23:58:47.850Z,24.38
